Southworth, Washington
Current Conditions -  °F | °C
As of 10:53 AM on Friday 31 Oct 2014 (Local Time) from KBFI Reporting Station
Light Rain Light Rain  
Wind Chill: 54°   Ceiling: 1200
Heat Index: 54°   Visibility: 10mi
Dew Point: 49°   Wind: 6mph
Humidity: 83%   Direction: 120°ESE
Pressure: 29.8"   Gusts: NA
Location:  47.51°N, 122.5°W
Report Text: KBFI 311753Z 12005KT 10SM -RA BKN012 OVC039 12/09 A2980 RMK AO2 SLP090 P0009 60051 T01220094 10122 20117 51034
Loading
Personal Weather Stations






























Interactive Weather Map
Tropical Storm Tracking
New forecast layout! Learn more

10-Day Weather Forecast

Advertisements
Track Severe Weather on mobile